< VanCam Weather - WU Station History
^^
Station Historical Data
Daily Summary for February 15, 2018 Units:  English    Metric   Both
« Previous Day
Next Day »
Daily Weekly Monthly Yearly Custom
  High: Low: Average:
Temperature: 46.2 °F 31.3 °F 39.8 °F
Dew Point: 42.4 °F 30.5 °F 38.3 °F
Humidity: 98% 80% 95%
Wind Speed: 8.0mph 0.0mph 1.4mph
Wind Gust: 8.0mph - -
Wind- - ESE
Pressure: 30.50 in 30.33 in -
Precipitation: 0.16 in    
Historical Graphs
 
 
Tabular Data for February 15, 2018
Time Temperature Dew Point Pressure Wind Wind Speed Wind Gust Humidity Rainfall Rate (Hourly) solar Conditions
00:02 31.3 °F 30.5 °F 30.33 in NE 2.3 mph 2.3 mph 97% 0.00 in WeatherDisplay:10.37 W/m2 RA
00:07 31.5 °F 30.7 °F 30.33 in NE 1.2 mph 1.2 mph 97% 0.00 in WeatherDisplay:10.37 W/m2 RA
00:12 31.7 °F 30.9 °F 30.34 in NE 1.2 mph 1.2 mph 97% 0.00 in WeatherDisplay:10.37 W/m2 CLR
00:17 31.9 °F 31.1 °F 30.34 in NE 1.2 mph 1.2 mph 97% 0.00 in WeatherDisplay:10.37 W/m2 CLR
00:22 32.1 °F 31.6 °F 30.34 in Calm     98% 0.00 in WeatherDisplay:10.37 W/m2 CLR
00:27 32.3 °F 31.5 °F 30.34 in Calm     97% 0.00 in WeatherDisplay:10.37 W/m2 CLR
00:32 32.5 °F 32.0 °F 30.34 in Calm     98% 0.00 in WeatherDisplay:10.37 W/m2 CLR
00:37 32.8 °F 32.0 °F 30.34 in ENE 1.2 mph 1.2 mph 97% 0.00 in WeatherDisplay:10.37 W/m2 CLR
00:42 33.1 °F 32.6 °F 30.35 in ENE 1.2 mph 1.2 mph 98% 0.00 in WeatherDisplay:10.37 W/m2 CLR
00:47 33.2 °F 32.7 °F 30.35 in ENE 1.2 mph   98% 0.00 in WeatherDisplay:10.37 W/m2 CLR
00:52 33.4 °F 32.9 °F 30.35 in ENE 2.3 mph 2.3 mph 98% 0.00 in WeatherDisplay:10.37 W/m2 CLR
00:57 33.6 °F 33.1 °F 30.35 in ENE 1.0 mph   98% 0.00 in WeatherDisplay:10.37 W/m2 CLR
01:02 33.7 °F 33.2 °F 30.35 in ENE 1.2 mph 1.2 mph 98% 0.00 in WeatherDisplay:10.37 W/m2 CLR
01:07 33.8 °F 33.3 °F 30.35 in ENE 1.2 mph 1.2 mph 98% 0.00 in WeatherDisplay:10.37 W/m2 CLR
01:12 33.9 °F 33.4 °F 30.35 in ENE 2.3 mph 2.3 mph 98% 0.00 in WeatherDisplay:10.37 W/m2 CLR
01:17 34.0 °F 33.5 °F 30.36 in ENE 2.3 mph 2.3 mph 98% 0.00 in WeatherDisplay:10.37 W/m2 CLR
01:22 34.1 °F 33.6 °F 30.36 in ENE 2.3 mph 2.3 mph 98% 0.00 in WeatherDisplay:10.37 W/m2 CLR
01:27 34.3 °F 33.8 °F 30.36 in ENE 2.0 mph 2.0 mph 98% 0.00 in WeatherDisplay:10.37 W/m2 CLR
01:32 34.6 °F 34.1 °F 30.36 in ENE 1.2 mph   98% 0.00 in WeatherDisplay:10.37 W/m2 CLR
01:37 34.6 °F 34.1 °F 30.36 in ENE 1.2 mph 1.2 mph 98% 0.00 in WeatherDisplay:10.37 W/m2 CLR
01:42 34.6 °F 34.1 °F 30.36 in ENE 2.3 mph 2.3 mph 98% 0.00 in WeatherDisplay:10.37 W/m2 CLR
01:47 34.5 °F 34.0 °F 30.37 in ENE 1.2 mph   98% 0.00 in WeatherDisplay:10.37 W/m2 CLR
01:52 34.6 °F 34.1 °F 30.37 in Calm     98% 0.00 in WeatherDisplay:10.37 W/m2 CLR
01:57 34.7 °F 34.2 °F 30.37 in ENE 1.2 mph 1.2 mph 98% 0.00 in WeatherDisplay:10.37 W/m2 CLR
02:02 34.9 °F 34.4 °F 30.38 in ENE 1.2 mph 1.2 mph 98% 0.00 in WeatherDisplay:10.37 W/m2 CLR
02:07 35.0 °F 34.5 °F 30.38 in ENE 1.2 mph 1.2 mph 98% 0.05 in WeatherDisplay:10.37 W/m2 RA
02:12 35.1 °F 34.6 °F 30.38 in Calm     98% 0.06 in WeatherDisplay:10.37 W/m2 RA
02:17 35.0 °F 34.5 °F 30.38 in Calm     98% 0.06 in WeatherDisplay:10.37 W/m2 RA
02:22 34.8 °F 34.3 °F 30.38 in ENE 1.2 mph 1.2 mph 98% 0.06 in WeatherDisplay:10.37 W/m2
02:27 34.8 °F 34.3 °F 30.38 in Calm     98% 0.06 in WeatherDisplay:10.37 W/m2
02:32 34.6 °F 34.1 °F 30.38 in ENE 2.3 mph 2.3 mph 98% 0.06 in WeatherDisplay:10.37 W/m2
02:37 34.4 °F 33.9 °F 30.38 in ENE 1.2 mph 1.2 mph 98% 0.06 in WeatherDisplay:10.37 W/m2
02:42 34.5 °F 34.0 °F 30.38 in ENE 1.2 mph 1.2 mph 98% 0.06 in WeatherDisplay:10.37 W/m2
02:47 34.7 °F 34.2 °F 30.38 in Calm     98% 0.06 in WeatherDisplay:10.37 W/m2
02:52 34.6 °F 34.1 °F 30.38 in ENE 2.0 mph 2.0 mph 98% 0.06 in WeatherDisplay:10.37 W/m2
02:57 34.5 °F 34.0 °F 30.38 in ENE 1.2 mph 1.2 mph 98% 0.06 in WeatherDisplay:10.37 W/m2
03:02 34.4 °F 33.9 °F 30.38 in ENE 1.2 mph   98% 0.06 in WeatherDisplay:10.37 W/m2
03:07 34.4 °F 33.9 °F 30.39 in Calm     98% 0.01 in WeatherDisplay:10.37 W/m2
03:12 34.4 °F 33.9 °F 30.39 in ENE 1.2 mph 1.2 mph 98% 0.00 in WeatherDisplay:10.37 W/m2 CLR
03:17 34.8 °F 34.3 °F 30.39 in Calm   0.1 mph 98% 0.00 in WeatherDisplay:10.37 W/m2 CLR
03:22 35.0 °F 34.5 °F 30.39 in ENE 1.2 mph 1.2 mph 98% 0.00 in WeatherDisplay:10.37 W/m2 CLR
03:27 35.2 °F 34.7 °F 30.39 in ENE 2.3 mph 2.3 mph 98% 0.00 in WeatherDisplay:10.37 W/m2 CLR
03:32 35.5 °F 35.0 °F 30.39 in ENE 2.3 mph 2.3 mph 98% 0.00 in WeatherDisplay:10.37 W/m2 CLR
03:37 36.0 °F 35.5 °F 30.39 in South 2.3 mph 2.3 mph 98% 0.00 in WeatherDisplay:10.37 W/m2 CLR
03:42 36.1 °F 35.6 °F 30.39 in Calm     98% 0.00 in WeatherDisplay:10.37 W/m2 CLR
03:47 36.1 °F 35.6 °F 30.39 in South 1.2 mph 1.2 mph 98% 0.00 in WeatherDisplay:10.37 W/m2 CLR
03:52 36.1 °F 35.6 °F 30.39 in Calm     98% 0.00 in WeatherDisplay:10.37 W/m2 CLR
03:57 36.2 °F 35.7 °F 30.39 in South 2.3 mph 2.3 mph 98% 0.00 in WeatherDisplay:10.37 W/m2 CLR
04:02 36.2 °F 35.7 °F 30.39 in South 1.2 mph 1.2 mph 98% 0.01 in WeatherDisplay:10.37 W/m2 RA
04:07 36.2 °F 35.7 °F 30.39 in South 1.2 mph 1.2 mph 98% 0.01 in WeatherDisplay:10.37 W/m2 RA
04:12 36.4 °F 35.9 °F 30.39 in South 1.2 mph 1.2 mph 98% 0.01 in WeatherDisplay:10.37 W/m2
04:17 36.5 °F 36.0 °F 30.39 in South 1.2 mph 1.2 mph 98% 0.01 in WeatherDisplay:10.37 W/m2
04:22 36.8 °F 36.3 °F 30.39 in SSE 1.2 mph 1.2 mph 98% 0.01 in WeatherDisplay:10.37 W/m2
04:27 36.9 °F 36.4 °F 30.39 in SSE 2.0 mph 2.0 mph 98% 0.01 in WeatherDisplay:10.37 W/m2
04:32 37.0 °F 36.5 °F 30.40 in SSE 1.2 mph 1.2 mph 98% 0.02 in WeatherDisplay:10.37 W/m2 RA
04:37 37.0 °F 36.5 °F 30.40 in Calm     98% 0.02 in WeatherDisplay:10.37 W/m2 RA
04:42 37.0 °F 36.5 °F 30.40 in Calm   0.1 mph 98% 0.02 in WeatherDisplay:10.37 W/m2
04:47 37.0 °F 36.5 °F 30.40 in SSE 2.3 mph 2.3 mph 98% 0.02 in WeatherDisplay:10.37 W/m2
04:52 37.0 °F 36.5 °F 30.40 in Calm     98% 0.03 in WeatherDisplay:10.37 W/m2 RA
04:57 37.0 °F 36.5 °F 30.40 in SSE 1.2 mph   98% 0.03 in WeatherDisplay:10.37 W/m2 RA
05:02 37.1 °F 36.6 °F 30.40 in Calm     98% 0.02 in WeatherDisplay:10.37 W/m2
05:07 37.1 °F 36.6 °F 30.40 in SSE 2.3 mph 2.3 mph 98% 0.02 in WeatherDisplay:10.37 W/m2
05:12 37.2 °F 36.7 °F 30.39 in SSE 1.2 mph 1.2 mph 98% 0.02 in WeatherDisplay:10.37 W/m2
05:17 37.2 °F 36.7 °F 30.40 in SSE 1.2 mph 1.2 mph 98% 0.02 in WeatherDisplay:10.37 W/m2
05:22 37.2 °F 36.7 °F 30.40 in East 3.5 mph 3.5 mph 98% 0.02 in WeatherDisplay:10.37 W/m2
05:27 37.2 °F 36.7 °F 30.40 in East 1.2 mph 1.2 mph 98% 0.02 in WeatherDisplay:10.37 W/m2
05:32 37.2 °F 36.7 °F 30.40 in East 1.2 mph 1.2 mph 98% 0.01 in WeatherDisplay:10.37 W/m2
05:37 37.2 °F 36.7 °F 30.40 in East 1.2 mph 1.2 mph 98% 0.01 in WeatherDisplay:10.37 W/m2
05:42 37.2 °F 36.7 °F 30.40 in Calm     98% 0.01 in WeatherDisplay:10.37 W/m2
05:47 37.3 °F 36.8 °F 30.41 in Calm     98% 0.01 in WeatherDisplay:10.37 W/m2
05:52 37.3 °F 36.8 °F 30.41 in Calm     98% 0.00 in WeatherDisplay:10.37 W/m2 CLR
05:57 37.3 °F 36.8 °F 30.41 in Calm     98% 0.00 in WeatherDisplay:10.37 W/m2 CLR
06:02 37.3 °F 36.8 °F 30.41 in East 2.3 mph 2.3 mph 98% 0.00 in WeatherDisplay:10.37 W/m2 CLR
06:07 37.3 °F 36.8 °F 30.41 in Calm     98% 0.01 in WeatherDisplay:10.37 W/m2 RA
06:12 37.3 °F 36.8 °F 30.41 in Calm     98% 0.01 in WeatherDisplay:10.37 W/m2 RA
06:17 37.3 °F 36.8 °F 30.41 in Calm     98% 0.01 in WeatherDisplay:10.37 W/m2
06:22 37.3 °F 36.8 °F 30.42 in Calm     98% 0.01 in WeatherDisplay:10.37 W/m2
06:27 37.2 °F 36.7 °F 30.42 in Calm     98% 0.01 in WeatherDisplay:10.37 W/m2
06:32 37.2 °F 36.7 °F 30.42 in Calm     98% 0.01 in WeatherDisplay:10.37 W/m2
06:37 37.3 °F 36.8 °F 30.42 in East 2.3 mph 2.3 mph 98% 0.01 in WeatherDisplay:10.37 W/m2
06:42 37.3 °F 36.8 °F 30.42 in East 2.3 mph 2.3 mph 98% 0.01 in WeatherDisplay:10.37 W/m2
06:47 37.4 °F 36.9 °F 30.42 in East 2.3 mph 2.3 mph 98% 0.02 in WeatherDisplay:10.37 W/m2 RA
06:52 37.5 °F 37.0 °F 30.42 in East 1.2 mph 1.2 mph 98% 0.02 in WeatherDisplay:10.37 W/m2 RA
06:57 37.6 °F 37.1 °F 30.43 in Calm     98% 0.03 in WeatherDisplay:10.37 W/m2 RA
07:02 37.6 °F 37.1 °F 30.43 in East 1.2 mph   98% 0.03 in WeatherDisplay:10.37 W/m2 RA
07:07 37.6 °F 37.1 °F 30.43 in East 1.2 mph 1.2 mph 98% 0.02 in WeatherDisplay:10.37 W/m2
07:12 37.6 °F 37.1 °F 30.44 in East 1.2 mph 1.2 mph 98% 0.02 in WeatherDisplay:10.37 W/m2
07:17 37.6 °F 37.1 °F 30.44 in Calm   0.1 mph 98% 0.02 in WeatherDisplay:10.37 W/m2
07:22 37.5 °F 37.0 °F 30.44 in East 1.2 mph 1.2 mph 98% 0.02 in WeatherDisplay:10.37 W/m2
07:27 37.6 °F 37.1 °F 30.44 in East 1.2 mph 1.2 mph 98% 0.02 in WeatherDisplay:10.37 W/m2
07:32 37.6 °F 37.1 °F 30.44 in Calm   0.2 mph 98% 0.02 in WeatherDisplay:10.37 W/m2
07:37 37.6 °F 37.1 °F 30.45 in East 1.2 mph 1.2 mph 98% 0.02 in WeatherDisplay:10.37 W/m2
07:42 37.7 °F 37.2 °F 30.45 in East 2.3 mph 2.3 mph 98% 0.02 in WeatherDisplay:10.37 W/m2
07:47 37.7 °F 37.2 °F 30.45 in East 1.2 mph 1.2 mph 98% 0.01 in WeatherDisplay:10.37 W/m2
07:52 37.9 °F 37.4 °F 30.45 in East 2.3 mph 2.3 mph 98% 0.01 in WeatherDisplay:10.37 W/m2
07:57 38.2 °F 37.7 °F 30.45 in East 2.3 mph 2.3 mph 98% 0.00 in WeatherDisplay:10.37 W/m2 CLR
08:02 38.4 °F 37.9 °F 30.46 in East 2.3 mph 2.3 mph 98% 0.00 in WeatherDisplay:10.37 W/m2 CLR
08:07 38.5 °F 38.0 °F 30.46 in East 2.3 mph 2.3 mph 98% 0.00 in WeatherDisplay:10.37 W/m2 CLR
08:12 38.6 °F 38.1 °F 30.47 in East 1.2 mph 1.2 mph 98% 0.00 in WeatherDisplay:10.37 W/m2 CLR
08:17 38.7 °F 38.2 °F 30.47 in East 2.3 mph 2.3 mph 98% 0.00 in WeatherDisplay:10.37 W/m2 CLR
08:22 38.8 °F 38.3 °F 30.47 in East 3.5 mph 3.5 mph 98% 0.00 in WeatherDisplay:10.37 W/m2 CLR
08:27 38.9 °F 38.4 °F 30.47 in East 1.2 mph 1.2 mph 98% 0.00 in WeatherDisplay:10.37 W/m2 CLR
08:32 39.0 °F 38.5 °F 30.47 in East 2.3 mph 2.3 mph 98% 0.00 in WeatherDisplay:10.37 W/m2 CLR
08:37 39.2 °F 38.7 °F 30.47 in ESE 3.5 mph 3.5 mph 98% 0.00 in WeatherDisplay:10.37 W/m2 CLR
08:42 39.3 °F 38.8 °F 30.47 in Calm     98% 0.00 in WeatherDisplay:10.37 W/m2 CLR
08:47 39.4 °F 38.9 °F 30.48 in Calm     98% 0.00 in WeatherDisplay:10.37 W/m2 CLR
08:52 39.6 °F 39.1 °F 30.48 in ESE 1.0 mph 1.0 mph 98% 0.00 in WeatherDisplay:10.37 W/m2 CLR
08:57 39.6 °F 39.1 °F 30.48 in ESE 1.2 mph 1.2 mph 98% 0.00 in WeatherDisplay:10.37 W/m2 CLR
09:02 39.7 °F 39.2 °F 30.48 in ESE 2.3 mph 2.3 mph 98% 0.00 in WeatherDisplay:10.37 W/m2 CLR
09:07 39.7 °F 39.2 °F 30.49 in ESE 1.2 mph 1.2 mph 98% 0.00 in WeatherDisplay:10.37 W/m2 CLR
09:12 39.8 °F 39.3 °F 30.49 in ESE 1.2 mph 1.2 mph 98% 0.00 in WeatherDisplay:10.37 W/m2 CLR
09:17 39.8 °F 39.3 °F 30.49 in ESE 2.3 mph 2.3 mph 98% 0.00 in WeatherDisplay:10.37 W/m2 CLR
09:22 39.9 °F 39.4 °F 30.49 in ESE 1.2 mph 1.2 mph 98% 0.00 in WeatherDisplay:10.37 W/m2 CLR
09:27 40.0 °F 39.5 °F 30.49 in Calm     98% 0.00 in WeatherDisplay:10.37 W/m2 CLR
09:32 40.0 °F 39.5 °F 30.49 in SE 2.3 mph 2.3 mph 98% 0.01 in WeatherDisplay:10.37 W/m2 RA
09:37 40.0 °F 39.5 °F 30.49 in SE 1.2 mph 1.2 mph 98% 0.01 in WeatherDisplay:10.37 W/m2 RA
09:42 40.2 °F 39.7 °F 30.49 in SE 1.2 mph 1.2 mph 98% 0.01 in WeatherDisplay:10.37 W/m2
09:47 40.4 °F 39.9 °F 30.49 in Calm     98% 0.01 in WeatherDisplay:10.37 W/m2
09:52 40.7 °F 40.2 °F 30.49 in Calm     98% 0.01 in WeatherDisplay:10.37 W/m2
09:57 41.0 °F 40.5 °F 30.49 in SE 2.3 mph 2.3 mph 98% 0.01 in WeatherDisplay:10.37 W/m2
10:02 41.0 °F 40.5 °F 30.49 in ENE 1.2 mph 1.2 mph 98% 0.01 in WeatherDisplay:10.37 W/m2
10:07 41.1 °F 40.6 °F 30.49 in North 2.3 mph 2.3 mph 98% 0.01 in WeatherDisplay:10.37 W/m2
10:12 41.3 °F 40.8 °F 30.49 in North 1.2 mph 1.2 mph 98% 0.01 in WeatherDisplay:10.37 W/m2
10:17 41.5 °F 41.0 °F 30.49 in NE 3.5 mph 3.5 mph 98% 0.01 in WeatherDisplay:10.37 W/m2
10:22 41.7 °F 41.2 °F 30.49 in NE 2.3 mph 2.3 mph 98% 0.01 in WeatherDisplay:10.37 W/m2
10:27 41.9 °F 41.4 °F 30.50 in SW 1.2 mph   98% 0.01 in WeatherDisplay:10.37 W/m2
10:32 42.0 °F 41.5 °F 30.50 in SW 1.2 mph 1.2 mph 98% 0.00 in WeatherDisplay:10.37 W/m2
10:37 42.1 °F 41.6 °F 30.50 in SW 2.0 mph 2.0 mph 98% 0.00 in WeatherDisplay:10.37 W/m2 CLR
10:42 42.2 °F 41.7 °F 30.50 in Calm   0.1 mph 98% 0.00 in WeatherDisplay:10.37 W/m2 CLR
10:47 42.2 °F 41.4 °F 30.50 in SSW 2.3 mph 2.3 mph 97% 0.00 in WeatherDisplay:10.37 W/m2 CLR
10:52 42.2 °F 41.1 °F 30.49 in SSW 2.3 mph 2.3 mph 96% 0.00 in WeatherDisplay:10.37 W/m2 CLR
10:57 42.4 °F 41.3 °F 30.49 in SE 1.2 mph 1.2 mph 96% 0.00 in WeatherDisplay:10.37 W/m2 CLR
11:02 42.8 °F 42.0 °F 30.49 in SE 2.3 mph 2.3 mph 97% 0.00 in WeatherDisplay:10.37 W/m2 CLR
11:07 43.1 °F 42.0 °F 30.49 in SE 2.3 mph 2.3 mph 96% 0.00 in WeatherDisplay:10.37 W/m2 CLR
11:12 43.3 °F 42.0 °F 30.49 in SE 2.3 mph 2.3 mph 95% 0.00 in WeatherDisplay:10.37 W/m2 CLR
11:17 43.5 °F 42.2 °F 30.49 in South 3.5 mph 3.5 mph 95% 0.00 in WeatherDisplay:10.37 W/m2 CLR
11:22 43.7 °F 41.8 °F 30.49 in SW 3.0 mph 3.0 mph 93% 0.00 in WeatherDisplay:10.37 W/m2 CLR
11:27 43.7 °F 41.5 °F 30.49 in SW 2.3 mph 2.3 mph 92% 0.00 in WeatherDisplay:10.37 W/m2 CLR
11:32 43.9 °F 42.3 °F 30.49 in South 3.5 mph 3.5 mph 94% 0.00 in WeatherDisplay:10.37 W/m2 CLR
11:37 44.1 °F 41.9 °F 30.49 in South 2.3 mph 2.3 mph 92% 0.00 in WeatherDisplay:10.37 W/m2 CLR
11:42 44.2 °F 41.5 °F 30.49 in South 3.5 mph 3.5 mph 90% 0.00 in WeatherDisplay:10.37 W/m2 CLR
11:47 44.3 °F 41.8 °F 30.49 in SSW 1.2 mph 1.2 mph 91% 0.00 in WeatherDisplay:10.37 W/m2 CLR
11:52 44.3 °F 42.1 °F 30.49 in South 2.3 mph 2.3 mph 92% 0.00 in WeatherDisplay:10.37 W/m2 CLR
11:57 44.3 °F 41.8 °F 30.49 in South 1.2 mph 1.2 mph 91% 0.00 in WeatherDisplay:10.37 W/m2 CLR
12:02 44.5 °F 42.0 °F 30.49 in SSW 2.3 mph 2.3 mph 91% 0.00 in WeatherDisplay:10.37 W/m2 CLR
12:07 44.7 °F 41.7 °F 30.49 in South 3.5 mph 3.5 mph 89% 0.00 in WeatherDisplay:10.37 W/m2 CLR
12:12 44.9 °F 41.3 °F 30.49 in SW 2.3 mph 2.3 mph 87% 0.00 in WeatherDisplay:10.37 W/m2 CLR
12:17 45.2 °F 42.4 °F 30.48 in SW 3.0 mph 3.0 mph 90% 0.00 in WeatherDisplay:10.37 W/m2 CLR
12:22 45.4 °F 41.5 °F 30.48 in NE 3.5 mph 3.5 mph 86% 0.00 in WeatherDisplay:10.37 W/m2 CLR
12:27 45.4 °F 41.8 °F 30.48 in NW 2.3 mph 2.3 mph 87% 0.00 in WeatherDisplay:10.37 W/m2 CLR
12:32 45.4 °F 42.3 °F 30.48 in SSW 5.8 mph 5.8 mph 89% 0.00 in WeatherDisplay:10.37 W/m2 CLR
12:37 45.2 °F 41.9 °F 30.48 in South 2.3 mph 2.3 mph 88% 0.00 in WeatherDisplay:10.37 W/m2 CLR
12:42 45.1 °F 41.5 °F 30.48 in SW 8.0 mph 8.0 mph 87% 0.00 in WeatherDisplay:10.37 W/m2 CLR
12:47 44.8 °F 40.6 °F 30.48 in South 5.8 mph 5.8 mph 85% 0.00 in WeatherDisplay:10.37 W/m2 CLR
12:52 44.7 °F 40.2 °F 30.48 in SW 3.5 mph 3.5 mph 84% 0.00 in WeatherDisplay:10.37 W/m2 CLR
12:57 44.7 °F 40.8 °F 30.48 in South 5.0 mph 5.0 mph 86% 0.00 in WeatherDisplay:10.37 W/m2 CLR
13:02 44.7 °F 40.5 °F 30.47 in SSE 3.5 mph 3.5 mph 85% 0.00 in WeatherDisplay:10.37 W/m2 CLR
13:07 45.0 °F 41.4 °F 30.47 in SSW 1.2 mph 1.2 mph 87% 0.00 in WeatherDisplay:10.37 W/m2 CLR
13:12 45.2 °F 40.7 °F 30.47 in SSW 1.2 mph 1.2 mph 84% 0.00 in WeatherDisplay:10.37 W/m2 CLR
13:17 45.6 °F 41.4 °F 30.47 in SSW 2.3 mph 2.3 mph 85% 0.00 in WeatherDisplay:10.37 W/m2 CLR
13:22 45.8 °F 40.6 °F 30.47 in SSW 2.3 mph 2.3 mph 82% 0.00 in WeatherDisplay:10.37 W/m2 CLR
13:27 45.9 °F 41.0 °F 30.46 in SSW 2.3 mph 2.3 mph 83% 0.00 in WeatherDisplay:10.37 W/m2 CLR
13:32 46.2 °F 41.6 °F 30.46 in SSW 3.5 mph 3.5 mph 84% 0.00 in WeatherDisplay:10.37 W/m2 CLR
13:37 46.2 °F 40.7 °F 30.46 in WSW 4.0 mph 4.0 mph 81% 0.00 in WeatherDisplay:10.37 W/m2 CLR
13:42 46.2 °F 40.7 °F 30.46 in SSE 3.5 mph 3.5 mph 81% 0.00 in WeatherDisplay:10.37 W/m2 CLR
13:47 46.1 °F 40.3 °F 30.46 in South 3.5 mph 3.5 mph 80% 0.00 in WeatherDisplay:10.37 W/m2 CLR
13:52 46.1 °F 41.2 °F 30.46 in South 1.2 mph 1.2 mph 83% 0.00 in WeatherDisplay:10.37 W/m2 CLR
13:57 46.1 °F 40.6 °F 30.46 in SSW 3.5 mph 3.5 mph 81% 0.00 in WeatherDisplay:10.37 W/m2 CLR
14:02 46.0 °F 40.2 °F 30.46 in SW 2.3 mph 2.3 mph 80% 0.00 in WeatherDisplay:10.37 W/m2 CLR
14:07 45.9 °F 40.4 °F 30.45 in SW 1.2 mph 1.2 mph 81% 0.00 in WeatherDisplay:10.37 W/m2 CLR
14:12 45.9 °F 41.0 °F 30.45 in SW 2.3 mph 2.3 mph 83% 0.00 in WeatherDisplay:10.37 W/m2 CLR
14:17 45.9 °F 41.3 °F 30.46 in SW 1.2 mph 1.2 mph 84% 0.00 in WeatherDisplay:10.37 W/m2 CLR
14:22 45.8 °F 40.3 °F 30.46 in South 6.9 mph 6.9 mph 81% 0.00 in WeatherDisplay:10.37 W/m2 CLR
14:27 45.4 °F 40.5 °F 30.45 in WSW 3.5 mph 3.5 mph 83% 0.00 in WeatherDisplay:10.37 W/m2 CLR
14:32 45.3 °F 39.8 °F 30.46 in South 2.3 mph 2.3 mph 81% 0.00 in WeatherDisplay:10.37 W/m2 CLR
14:37 45.4 °F 39.9 °F 30.46 in Calm   0.1 mph 81% 0.00 in WeatherDisplay:10.37 W/m2 CLR
14:42 45.5 °F 40.9 °F 30.46 in South 1.2 mph 1.2 mph 84% 0.00 in WeatherDisplay:10.37 W/m2 CLR
14:48 45.5 °F 41.3 °F 30.46 in South 1.2 mph 1.2 mph 85% 0.00 in WeatherDisplay:10.37 W/m2 CLR
14:53 45.4 °F 41.2 °F 30.46 in South 1.2 mph 1.2 mph 85% 0.00 in WeatherDisplay:10.37 W/m2 CLR
14:57 45.4 °F 40.5 °F 30.46 in South 2.3 mph 2.3 mph 83% 0.00 in WeatherDisplay:10.37 W/m2 CLR
15:02 45.3 °F 41.4 °F 30.46 in South 1.2 mph 1.2 mph 86% 0.00 in WeatherDisplay:10.37 W/m2 CLR
15:07 45.2 °F 41.3 °F 30.46 in South 1.2 mph 1.2 mph 86% 0.00 in WeatherDisplay:10.37 W/m2 CLR
15:12 45.3 °F 41.1 °F 30.46 in South 1.2 mph   85% 0.00 in WeatherDisplay:10.37 W/m2 CLR
15:17 45.2 °F 41.9 °F 30.46 in Calm     88% 0.00 in WeatherDisplay:10.37 W/m2 CLR
15:22 45.1 °F 42.1 °F 30.46 in Calm     89% 0.00 in WeatherDisplay:10.37 W/m2 CLR
15:27 45.1 °F 40.6 °F 30.46 in NNE 3.5 mph 3.5 mph 84% 0.00 in WeatherDisplay:10.37 W/m2 CLR
15:32 45.1 °F 40.6 °F 30.46 in North 3.5 mph 3.5 mph 84% 0.00 in WeatherDisplay:10.37 W/m2 CLR
15:37 45.2 °F 41.3 °F 30.46 in ENE 2.3 mph 2.5 mph 86% 0.00 in WeatherDisplay:10.37 W/m2 CLR
15:42 45.4 °F 41.8 °F 30.46 in NE 4.0 mph 4.0 mph 87% 0.00 in WeatherDisplay:10.37 W/m2 CLR
15:47 45.3 °F 41.4 °F 30.46 in NE 3.5 mph 3.5 mph 86% 0.00 in WeatherDisplay:10.37 W/m2 CLR
15:52 45.3 °F 41.7 °F 30.46 in NE 3.5 mph 3.5 mph 87% 0.00 in WeatherDisplay:10.37 W/m2 CLR
15:57 45.3 °F 41.4 °F 30.46 in NE 3.5 mph 3.5 mph 86% 0.00 in WeatherDisplay:10.37 W/m2 CLR
16:02 45.3 °F 41.4 °F 30.46 in NE 3.0 mph 3.0 mph 86% 0.00 in WeatherDisplay:10.37 W/m2 CLR
16:07 45.2 °F 40.3 °F 30.46 in NE 3.5 mph 3.5 mph 83% 0.00 in WeatherDisplay:10.37 W/m2 CLR
16:12 45.2 °F 40.7 °F 30.46 in NE 2.3 mph 2.3 mph 84% 0.00 in WeatherDisplay:10.37 W/m2 CLR
16:17 45.2 °F 40.7 °F 30.46 in NE 2.3 mph   84% 0.00 in WeatherDisplay:10.37 W/m2 CLR
16:22 45.1 °F 40.9 °F 30.46 in NE 1.2 mph 1.2 mph 85% 0.00 in WeatherDisplay:10.37 W/m2 CLR
16:27 45.1 °F 41.2 °F 30.45 in NW 2.3 mph 2.3 mph 86% 0.02 in WeatherDisplay:10.37 W/m2 RA
16:32 44.7 °F 39.9 °F 30.45 in South 1.2 mph 1.2 mph 83% 0.02 in WeatherDisplay:10.37 W/m2 RA
16:37 44.1 °F 41.4 °F 30.45 in South 2.3 mph 2.3 mph 90% 0.02 in WeatherDisplay:10.37 W/m2
16:42 43.6 °F 40.9 °F 30.46 in South 1.0 mph 1.0 mph 90% 0.02 in WeatherDisplay:10.37 W/m2 CLR
16:47 43.2 °F 40.8 °F 30.46 in Calm     91% 0.02 in WeatherDisplay:10.37 W/m2 CLR
16:52 42.8 °F 40.4 °F 30.46 in Calm     91% 0.02 in WeatherDisplay:10.37 W/m2 CLR
16:57 42.5 °F 40.3 °F 30.46 in Calm     92% 0.02 in WeatherDisplay:10.37 W/m2 CLR
17:02 42.3 °F 40.1 °F 30.46 in Calm     92% 0.02 in WeatherDisplay:10.37 W/m2 CLR
17:07 42.0 °F 40.1 °F 30.46 in Calm     93% 0.02 in WeatherDisplay:10.37 W/m2 CLR
17:12 41.8 °F 39.9 °F 30.46 in Calm     93% 0.02 in WeatherDisplay:10.37 W/m2 CLR
17:17 41.5 °F 39.6 °F 30.46 in Calm     93% 0.02 in WeatherDisplay:10.37 W/m2 CLR
17:22 41.2 °F 39.3 °F 30.46 in Calm     93% 0.02 in WeatherDisplay:10.37 W/m2 CLR
17:27 41.1 °F 39.5 °F 30.47 in Calm     94% 0.00 in WeatherDisplay:10.37 W/m2 CLR
17:32 40.8 °F 39.2 °F 30.47 in South 2.3 mph 2.3 mph 94% 0.00 in WeatherDisplay:10.37 W/m2 CLR
17:37 40.7 °F 39.4 °F 30.47 in South 1.2 mph   95% 0.00 in WeatherDisplay:10.37 W/m2 CLR
17:42 40.6 °F 39.3 °F 30.47 in Calm     95% 0.00 in WeatherDisplay:10.37 W/m2 CLR
17:47 40.5 °F 39.2 °F 30.47 in South 1.2 mph 1.2 mph 95% 0.00 in WeatherDisplay:10.37 W/m2 CLR
17:52 40.4 °F 39.1 °F 30.47 in Calm     95% 0.00 in WeatherDisplay:10.37 W/m2 CLR
17:57 40.4 °F 39.1 °F 30.47 in Calm     95% 0.00 in WeatherDisplay:10.37 W/m2 CLR
18:02 40.5 °F 39.4 °F 30.47 in NW 2.3 mph 2.3 mph 96% 0.00 in WeatherDisplay:10.37 W/m2 CLR
18:07 40.5 °F 39.4 °F 30.48 in NW 1.2 mph 1.2 mph 96% 0.00 in WeatherDisplay:10.37 W/m2 CLR
18:12 40.6 °F 39.5 °F 30.47 in NW 1.2 mph 1.2 mph 96% 0.00 in WeatherDisplay:10.37 W/m2 CLR
18:17 40.7 °F 39.6 °F 30.47 in ESE 2.3 mph 2.3 mph 96% 0.00 in WeatherDisplay:10.37 W/m2 CLR
18:22 40.7 °F 39.6 °F 30.47 in NNE 2.3 mph 2.3 mph 96% 0.00 in WeatherDisplay:10.37 W/m2 CLR
18:27 40.7 °F 39.6 °F 30.47 in NNE 1.2 mph   96% 0.00 in WeatherDisplay:10.37 W/m2 CLR
18:32 40.8 °F 39.7 °F 30.47 in NNE 3.5 mph 3.5 mph 96% 0.00 in WeatherDisplay:10.37 W/m2 CLR
18:37 40.8 °F 39.7 °F 30.47 in NNE 2.3 mph 2.3 mph 96% 0.00 in WeatherDisplay:10.37 W/m2 CLR
18:42 40.8 °F 39.7 °F 30.47 in NE 4.0 mph 4.0 mph 96% 0.00 in WeatherDisplay:10.37 W/m2 CLR
18:47 40.8 °F 39.5 °F 30.47 in NE 1.2 mph   95% 0.00 in WeatherDisplay:10.37 W/m2 CLR
18:52 40.8 °F 39.5 °F 30.47 in NE 1.2 mph 1.2 mph 95% 0.00 in WeatherDisplay:10.37 W/m2 CLR
18:57 40.8 °F 39.5 °F 30.47 in NE 1.2 mph 1.2 mph 95% 0.00 in WeatherDisplay:10.37 W/m2 CLR
19:02 40.7 °F 39.4 °F 30.48 in NE 1.2 mph   95% 0.00 in WeatherDisplay:10.37 W/m2 CLR
19:07 40.7 °F 39.6 °F 30.48 in NE 1.0 mph   96% 0.00 in WeatherDisplay:10.37 W/m2 CLR
19:12 40.6 °F 39.3 °F 30.48 in NE 2.3 mph 2.3 mph 95% 0.00 in WeatherDisplay:10.37 W/m2 CLR
19:17 40.6 °F 39.3 °F 30.48 in NE 2.3 mph 2.3 mph 95% 0.00 in WeatherDisplay:10.37 W/m2 CLR
19:22 40.5 °F 39.2 °F 30.48 in NE 2.3 mph 2.3 mph 95% 0.00 in WeatherDisplay:10.37 W/m2 CLR
19:27 40.5 °F 39.2 °F 30.47 in NE 2.3 mph 2.3 mph 95% 0.00 in WeatherDisplay:10.37 W/m2 CLR
19:32 40.5 °F 39.2 °F 30.48 in NE 1.2 mph 1.2 mph 95% 0.00 in WeatherDisplay:10.37 W/m2 CLR
19:37 40.4 °F 39.1 °F 30.47 in Calm     95% 0.00 in WeatherDisplay:10.37 W/m2 CLR
19:42 40.3 °F 39.0 °F 30.48 in Calm     95% 0.00 in WeatherDisplay:10.37 W/m2 CLR
19:47 40.2 °F 38.9 °F 30.47 in Calm     95% 0.00 in WeatherDisplay:10.37 W/m2 CLR
19:52 40.0 °F 38.7 °F 30.47 in Calm     95% 0.00 in WeatherDisplay:10.37 W/m2 CLR
19:57 40.0 °F 39.0 °F 30.47 in Calm     96% 0.00 in WeatherDisplay:10.37 W/m2 CLR
20:02 39.9 °F 38.9 °F 30.47 in Calm     96% 0.00 in WeatherDisplay:10.37 W/m2 CLR
20:07 39.8 °F 38.8 °F 30.47 in NE 1.2 mph   96% 0.00 in WeatherDisplay:10.37 W/m2 CLR
20:12 39.8 °F 38.8 °F 30.48 in Calm     96% 0.00 in WeatherDisplay:10.37 W/m2 CLR
20:17 39.8 °F 38.8 °F 30.48 in Calm     96% 0.00 in WeatherDisplay:10.37 W/m2 CLR
20:22 39.7 °F 38.7 °F 30.47 in Calm   0.1 mph 96% 0.00 in WeatherDisplay:10.37 W/m2 CLR
20:27 39.7 °F 38.7 °F 30.47 in NE 1.2 mph   96% 0.00 in WeatherDisplay:10.37 W/m2 CLR
20:32 39.7 °F 38.7 °F 30.47 in Calm     96% 0.01 in WeatherDisplay:10.37 W/m2 RA
20:37 39.6 °F 38.6 °F 30.47 in Calm     96% 0.01 in WeatherDisplay:10.37 W/m2 RA
20:42 39.5 °F 38.5 °F 30.47 in NE 1.0 mph 1.0 mph 96% 0.01 in WeatherDisplay:10.37 W/m2
20:47 39.5 °F 38.5 °F 30.47 in Calm     96% 0.01 in WeatherDisplay:10.37 W/m2 CLR
20:52 39.5 °F 38.5 °F 30.47 in Calm     96% 0.01 in WeatherDisplay:10.37 W/m2 CLR
20:57 39.4 °F 38.4 °F 30.47 in Calm     96% 0.01 in WeatherDisplay:10.37 W/m2 CLR
21:02 39.4 °F 38.4 °F 30.47 in Calm     96% 0.01 in WeatherDisplay:10.37 W/m2 CLR
21:07 39.4 °F 38.6 °F 30.47 in Calm     97% 0.01 in WeatherDisplay:10.37 W/m2 CLR
21:12 39.4 °F 38.6 °F 30.47 in Calm     97% 0.01 in WeatherDisplay:10.37 W/m2 CLR
21:17 39.4 °F 38.6 °F 30.47 in Calm     97% 0.01 in WeatherDisplay:10.37 W/m2 CLR
21:22 39.3 °F 38.5 °F 30.47 in Calm     97% 0.01 in WeatherDisplay:10.37 W/m2 CLR
21:27 39.3 °F 38.5 °F 30.47 in Calm     97% 0.01 in WeatherDisplay:10.37 W/m2 CLR
21:32 39.3 °F 38.5 °F 30.47 in Calm     97% 0.00 in WeatherDisplay:10.37 W/m2 CLR
21:37 39.2 °F 38.4 °F 30.47 in Calm     97% 0.00 in WeatherDisplay:10.37 W/m2 CLR
21:42 39.2 °F 38.4 °F 30.47 in Calm     97% 0.00 in WeatherDisplay:10.37 W/m2 CLR
21:47 39.2 °F 38.4 °F 30.47 in Calm     97% 0.00 in WeatherDisplay:10.37 W/m2 CLR
21:52 39.1 °F 38.3 °F 30.47 in Calm     97% 0.00 in WeatherDisplay:10.37 W/m2 CLR
21:57 39.1 °F 38.3 °F 30.47 in Calm     97% 0.00 in WeatherDisplay:10.37 W/m2 CLR
22:02 39.0 °F 38.2 °F 30.47 in Calm     97% 0.00 in WeatherDisplay:10.37 W/m2 CLR
22:07 39.1 °F 38.3 °F 30.46 in Calm     97% 0.00 in WeatherDisplay:10.37 W/m2 CLR
22:12 39.0 °F 38.2 °F 30.46 in Calm     97% 0.00 in WeatherDisplay:10.37 W/m2 CLR
22:17 38.9 °F 38.1 °F 30.46 in Calm     97% 0.00 in WeatherDisplay:10.37 W/m2 CLR
22:22 38.8 °F 38.0 °F 30.46 in Calm     97% 0.00 in WeatherDisplay:10.37 W/m2 CLR
22:27 38.7 °F 37.9 °F 30.46 in Calm     97% 0.00 in WeatherDisplay:10.37 W/m2 CLR
22:32 38.6 °F 37.8 °F 30.46 in Calm     97% 0.00 in WeatherDisplay:10.37 W/m2 CLR
22:37 38.6 °F 37.8 °F 30.46 in Calm     97% 0.00 in WeatherDisplay:10.37 W/m2 CLR
22:42 38.6 °F 37.8 °F 30.46 in NE 2.3 mph 2.3 mph 97% 0.00 in WeatherDisplay:10.37 W/m2 CLR
22:47 38.6 °F 37.8 °F 30.46 in NE 1.2 mph 1.2 mph 97% 0.00 in WeatherDisplay:10.37 W/m2 CLR
22:52 38.6 °F 37.8 °F 30.46 in NE 1.2 mph   97% 0.00 in WeatherDisplay:10.37 W/m2 CLR
22:57 38.6 °F 37.8 °F 30.46 in Calm     97% 0.00 in WeatherDisplay:10.37 W/m2 CLR
23:02 38.6 °F 37.8 °F 30.46 in Calm     97% 0.00 in WeatherDisplay:10.37 W/m2 CLR
23:07 38.5 °F 37.7 °F 30.45 in Calm     97% 0.00 in WeatherDisplay:10.37 W/m2 CLR
23:12 38.5 °F 37.7 °F 30.45 in NE 2.3 mph 2.3 mph 97% 0.00 in WeatherDisplay:10.37 W/m2 CLR
23:17 38.5 °F 37.7 °F 30.45 in NE 2.3 mph 2.3 mph 97% 0.00 in WeatherDisplay:10.37 W/m2 CLR
23:22 38.4 °F 37.6 °F 30.45 in NE 2.3 mph 2.3 mph 97% 0.00 in WeatherDisplay:10.37 W/m2 CLR
23:27 38.4 °F 37.6 °F 30.45 in NE 1.2 mph 1.2 mph 97% 0.00 in WeatherDisplay:10.37 W/m2 CLR
23:32 38.4 °F 37.6 °F 30.45 in NE 1.2 mph 1.2 mph 97% 0.00 in WeatherDisplay:10.37 W/m2 CLR
23:37 38.4 °F 37.6 °F 30.45 in NE 1.2 mph   97% 0.00 in WeatherDisplay:10.37 W/m2 CLR
23:42 38.4 °F 37.6 °F 30.45 in Calm     97% 0.00 in WeatherDisplay:10.37 W/m2 CLR
23:47 38.4 °F 37.6 °F 30.45 in Calm     97% 0.00 in WeatherDisplay:10.37 W/m2 CLR
23:52 38.3 °F 37.5 °F 30.45 in NE 1.2 mph 1.2 mph 97% 0.00 in WeatherDisplay:10.37 W/m2 CLR
23:57 38.4 °F 37.6 °F 30.45 in NE 2.3 mph 2.3 mph 97% 0.00 in WeatherDisplay:10.37 W/m2 CLR
VanCam Weather
Compliments of Weather Underground - 3.75 mb